Time;durP1;ratioP1;P1;durP2;ratioP2;P2;SDS_P1;SDS_P2;PMS_P1;PMS_P2;Temp;Humidity;BMP_temperature;BMP_pressure;BME280_temperature;BME280_humidity;BME280_pressure;Samples;Min_cycle;Max_cycle;Signal;HPM_P1;HPM_P2
2023/07/10 00:01:06;;;;;;;;;;;;;;;24.85;48.90;101787.34;4180832;28;19975;-60
2023/07/10 00:03:09;;;;;;;;;;;;;;;24.84;48.69;101784.78;4180917;28;20359;-60
2023/07/10 00:05:12;;;;;;;;;;;;;;;24.83;48.70;101791.16;4180861;28;19967;-60
2023/07/10 00:07:14;;;;;;;;;;;;;;;24.83;48.56;101793.84;4180778;28;19950;-60
2023/07/10 00:09:15;;;;;;;;;;;;;;;24.82;48.87;101795.66;4180056;28;20367;-60
2023/07/10 00:11:18;;;;;;;;;;;;;;;24.82;48.62;101792.13;4180756;28;20407;-59
2023/07/10 00:13:21;;;;;;;;;;;;;;;24.82;48.74;101794.81;4180932;28;19960;-60
2023/07/10 00:15:23;;;;;;;;;;;;;;;24.81;48.58;101793.97;4180720;28;19927;-59
2023/07/10 00:17:25;;;;;;;;;;;;;;;24.80;48.82;101791.38;4180449;28;20379;-60
2023/07/10 00:19:26;;;;;;;;;;;;;;;24.81;48.69;101795.78;4179779;28;19928;-60
2023/07/10 00:21:28;;;;;;;;;;;;;;;24.79;48.77;101798.59;4180712;28;19975;-60
2023/07/10 00:23:30;;;;;;;;;;;;;;;24.79;48.84;101803.09;4180679;28;20044;-60
2023/07/10 00:25:31;;;;;;;;;;;;;;;24.78;48.84;101804.97;4179167;28;19963;-60
2023/07/10 00:27:33;;;;;;;;;;;;;;;24.79;48.55;101803.09;4180881;28;19960;-60
2023/07/10 00:29:34;;;;;;;;;;;;;;;24.77;48.68;101802.41;4179699;28;19927;-60
2023/07/10 00:31:36;;;;;;;;;;;;;;;24.78;48.80;101801.44;4180371;28;20338;-59
2023/07/10 00:33:37;;;;;;;;;;;;;;;24.76;48.77;101798.84;4180917;28;19928;-60
2023/07/10 00:35:39;;;;;;;;;;;;;;;24.75;48.79;101794.41;4180605;28;20028;-59
2023/07/10 00:37:41;;;;;;;;;;;;;;;24.75;48.76;101802.50;4180653;28;19920;-59
2023/07/10 00:39:43;;;;;;;;;;;;;;;24.74;48.78;101795.44;4179698;28;19924;-59
2023/07/10 00:41:46;;;;;;;;;;;;;;;24.74;48.80;101795.44;4180467;28;19920;-59
2023/07/10 00:43:51;;;;;;;;;;;;;;;24.74;48.72;101800.81;4180733;28;19956;-58
2023/07/10 00:45:53;;;;;;;;;;;;;;;24.72;48.64;101795.53;4180541;28;19929;-59
2023/07/10 00:48:00;;;;;;;;;;;;;;;24.71;48.72;101795.66;4180444;28;20298;-59
2023/07/10 00:50:16;;;;;;;;;;;;;;;24.71;48.81;101801.88;4179536;28;19963;-59
2023/07/10 00:52:20;;;;;;;;;;;;;;;24.71;48.78;101801.03;4180640;28;20410;-59
2023/07/10 00:54:31;;;;;;;;;;;;;;;24.70;48.76;101799.31;4180533;28;19921;-59
2023/07/10 00:56:38;;;;;;;;;;;;;;;24.70;48.78;101802.00;4179145;28;19932;-58
2023/07/10 00:58:42;;;;;;;;;;;;;;;24.69;48.83;101800.28;4180180;28;19927;-59
2023/07/10 01:00:58;;;;;;;;;;;;;;;24.68;48.63;101799.44;4178973;28;20390;-59
2023/07/10 01:03:01;;;;;;;;;;;;;;;24.68;48.69;101790.50;4180425;28;19935;-60
2023/07/10 01:05:03;;;;;;;;;;;;;;;24.66;48.59;101787.94;4180668;28;19924;-59
2023/07/10 01:07:06;;;;;;;;;;;;;;;24.66;48.50;101790.63;4180240;28;20414;-59
2023/07/10 01:09:08;;;;;;;;;;;;;;;24.64;48.50;101781.81;4179299;28;19979;-60
2023/07/10 01:11:09;;;;;;;;;;;;;;;24.65;48.75;101780.81;4179972;28;19970;-59
2023/07/10 01:13:11;;;;;;;;;;;;;;;24.65;48.50;101777.28;4180188;28;19927;-59
2023/07/10 01:15:13;;;;;;;;;;;;;;;24.64;48.51;101776.44;4179895;28;19920;-59
2023/07/10 01:17:14;;;;;;;;;;;;;;;24.63;48.69;101782.78;4180261;28;19933;-58
2023/07/10 01:19:21;;;;;;;;;;;;;;;24.62;48.69;101781.06;4177998;28;19921;-59
2023/07/10 01:21:27;;;;;;;;;;;;;;;24.62;48.43;101783.75;4180171;28;19927;-59
2023/07/10 01:23:29;;;;;;;;;;;;;;;24.61;48.38;101783.91;4180353;28;19948;-59
2023/07/10 01:25:39;;;;;;;;;;;;;;;24.62;48.81;101785.56;4178976;28;19975;-59
2023/07/10 01:27:40;;;;;;;;;;;;;;;24.61;48.74;101787.44;4180254;28;19928;-59
2023/07/10 01:29:47;;;;;;;;;;;;;;;24.60;48.47;101783.03;4179026;28;19952;-60
2023/07/10 01:31:50;;;;;;;;;;;;;;;24.59;48.71;101784.00;4180328;28;20319;-60
2023/07/10 01:33:54;;;;;;;;;;;;;;;24.60;48.71;101790.25;4180132;28;19921;-59
2023/07/10 01:35:58;;;;;;;;;;;;;;;24.59;48.57;101792.06;4180022;28;19921;-59
2023/07/10 01:37:59;;;;;;;;;;;;;;;24.58;48.64;101793.03;4181290;28;19920;-60
2023/07/10 01:40:01;;;;;;;;;;;;;;;24.58;48.50;101784.97;4182297;28;19927;-60
2023/07/10 01:42:02;;;;;;;;;;;;;;;24.58;48.36;101794.88;4183393;28;20491;-60
2023/07/10 01:44:13;;;;;;;;;;;;;;;24.57;48.59;101794.03;4183231;28;19971;-59
2023/07/10 01:46:16;;;;;;;;;;;;;;;24.57;48.42;101799.41;4182220;28;19971;-60
2023/07/10 01:48:23;;;;;;;;;;;;;;;24.55;48.76;101794.13;4183177;28;19931;-60
2023/07/10 01:50:25;;;;;;;;;;;;;;;24.55;48.41;101799.50;4182126;28;19927;-60
2023/07/10 01:52:26;;;;;;;;;;;;;;;24.55;48.36;101795.97;4183104;28;19940;-60
2023/07/10 01:54:28;;;;;;;;;;;;;;;24.54;48.75;101797.78;4183015;28;19925;-60
2023/07/10 01:56:30;;;;;;;;;;;;;;;24.54;48.41;101800.47;4183003;28;19921;-59
2023/07/10 01:58:32;;;;;;;;;;;;;;;24.53;48.41;101795.22;4182899;28;19927;-59
2023/07/10 02:00:34;;;;;;;;;;;;;;;24.53;48.38;101798.78;4182146;28;19970;-60
2023/07/10 02:02:35;;;;;;;;;;;;;;;24.53;48.44;101801.47;4182744;28;20291;-60
2023/07/10 02:04:37;;;;;;;;;;;;;;;24.52;48.48;101798.88;4182882;28;20403;-60
2023/07/10 02:06:39;;;;;;;;;;;;;;;24.51;48.68;101794.47;4182705;28;19956;-61
2023/07/10 02:08:41;;;;;;;;;;;;;;;24.51;48.81;101794.47;4182869;28;19920;-59
2023/07/10 02:10:42;;;;;;;;;;;;;;;24.50;48.70;101792.78;4181576;28;20315;-60
2023/07/10 02:12:46;;;;;;;;;;;;;;;24.50;48.68;101795.50;4182921;28;19932;-60
2023/07/10 02:14:47;;;;;;;;;;;;;;;24.50;48.61;101799.03;4182444;28;19921;-60
2023/07/10 02:16:49;;;;;;;;;;;;;;;24.49;48.43;101799.16;4182916;28;19936;-59
2023/07/10 02:18:50;;;;;;;;;;;;;;;24.49;48.70;101799.16;4181349;28;19955;-59
2023/07/10 02:20:53;;;;;;;;;;;;;;;24.47;48.63;101793.88;4181738;28;19927;-59
2023/07/10 02:22:55;;;;;;;;;;;;;;;24.47;48.58;101793.88;4182780;28;20344;-58
2023/07/10 02:24:56;;;;;;;;;;;;;;;24.46;48.48;101796.69;4182549;28;19928;-60
2023/07/10 02:26:58;;;;;;;;;;;;;;;24.46;48.57;101791.31;4182596;28;19932;-59
2023/07/10 02:28:59;;;;;;;;;;;;;;;24.46;48.39;101794.88;4182304;28;19951;-60
2023/07/10 02:31:05;;;;;;;;;;;;;;;24.46;48.59;101799.38;4181774;28;20441;-60
2023/07/10 02:33:07;;;;;;;;;;;;;;;24.45;48.71;101792.28;4182431;28;19932;-60
2023/07/10 02:35:09;;;;;;;;;;;;;;;24.45;48.62;101797.66;4182657;28;19940;-60
2023/07/10 02:37:10;;;;;;;;;;;;;;;24.43;48.77;101803.16;4182522;28;19925;-60
2023/07/10 02:39:12;;;;;;;;;;;;;;;24.44;48.58;101812.09;4182693;28;20011;-60
2023/07/10 02:41:13;;;;;;;;;;;;;;;24.44;48.50;101809.41;4181646;28;19921;-60
2023/07/10 02:43:15;;;;;;;;;;;;;;;24.42;48.57;101805.97;4182110;28;19924;-59
2023/07/10 02:45:17;;;;;;;;;;;;;;;24.42;48.61;101804.13;4182408;28;19927;-60
2023/07/10 02:47:19;;;;;;;;;;;;;;;24.42;48.51;101811.34;4182338;28;19931;-61
2023/07/10 02:49:20;;;;;;;;;;;;;;;24.40;48.44;101808.78;4180789;28;19974;-60
2023/07/10 02:51:22;;;;;;;;;;;;;;;24.41;48.39;101810.47;4181455;28;19928;-60
2023/07/10 02:53:23;;;;;;;;;;;;;;;24.39;48.61;101812.44;4182196;28;20015;-60
2023/07/10 02:55:25;;;;;;;;;;;;;;;24.39;48.85;101813.28;4182329;28;20352;-60
2023/07/10 02:57:26;;;;;;;;;;;;;;;24.38;48.39;101808.03;4181667;28;19971;-60
2023/07/10 02:59:28;;;;;;;;;;;;;;;24.39;48.63;101809.75;4181397;28;20261;-60
2023/07/10 03:01:30;;;;;;;;;;;;;;;24.38;48.69;101818.78;4181923;28;19921;-60
2023/07/10 03:03:31;;;;;;;;;;;;;;;24.37;48.51;101822.47;4182092;28;20394;-60
2023/07/10 03:05:33;;;;;;;;;;;;;;;24.36;48.72;101824.31;4181880;28;19920;-59
2023/07/10 03:07:35;;;;;;;;;;;;;;;24.36;48.54;101827.00;4181981;28;19956;-59
2023/07/10 03:09:36;;;;;;;;;;;;;;;24.35;48.48;101819.91;4181093;28;20307;-60
2023/07/10 03:11:38;;;;;;;;;;;;;;;24.35;48.45;101824.41;4181214;28;20399;-60
2023/07/10 03:13:39;;;;;;;;;;;;;;;24.34;48.57;101815.50;4181916;28;19952;-59
2023/07/10 03:15:41;;;;;;;;;;;;;;;24.34;48.36;101823.56;4181925;28;19921;-60
2023/07/10 03:17:43;;;;;;;;;;;;;;;24.33;48.73;101823.69;4197335;28;19958;-60
2023/07/10 03:19:45;;;;;;;;;;;;;;;24.32;48.83;101822.81;4180955;28;20021;-59
2023/07/10 03:21:46;;;;;;;;;;;;;;;24.33;48.56;101818.31;4181442;28;20011;-59
2023/07/10 03:23:49;;;;;;;;;;;;;;;24.32;48.74;101817.44;4181928;28;19921;-59
2023/07/10 03:25:51;;;;;;;;;;;;;;;24.32;48.90;101819.28;4181263;28;19920;-59
2023/07/10 03:27:52;;;;;;;;;;;;;;;24.31;48.76;101826.47;4181898;28;19920;-58
2023/07/10 03:29:54;;;;;;;;;;;;;;;24.31;48.80;101826.47;4180549;28;19920;-59
2023/07/10 03:31:55;;;;;;;;;;;;;;;24.30;48.87;101827.44;4181589;28;19974;-59
2023/07/10 03:33:57;;;;;;;;;;;;;;;24.30;48.45;101819.38;4181627;28;20326;-59
2023/07/10 03:36:05;;;;;;;;;;;;;;;24.30;48.74;101829.28;4181641;28;20291;-60
2023/07/10 03:38:08;;;;;;;;;;;;;;;24.29;48.59;101832.94;4181413;28;20019;-59
2023/07/10 03:40:10;;;;;;;;;;;;;;;24.29;48.69;101828.44;4180128;28;19978;-59
2023/07/10 03:42:12;;;;;;;;;;;;;;;24.28;48.87;101834.78;4181286;28;19927;-59
2023/07/10 03:44:13;;;;;;;;;;;;;;;24.28;48.92;101831.22;4181383;28;20015;-58
2023/07/10 03:46:16;;;;;;;;;;;;;;;24.28;48.93;101831.22;4181464;28;20312;-59
2023/07/10 03:48:17;;;;;;;;;;;;;;;24.27;48.86;101826.84;4181103;28;20314;-59
2023/07/10 03:50:19;;;;;;;;;;;;;;;24.25;48.51;101840.38;4180435;28;20028;-59
2023/07/10 03:52:20;;;;;;;;;;;;;;;24.26;48.79;101838.56;4181082;28;19967;-59
2023/07/10 03:54:22;;;;;;;;;;;;;;;24.26;48.91;101838.56;4181185;28;19951;-59
2023/07/10 03:56:23;;;;;;;;;;;;;;;24.25;48.64;101840.38;4181031;28;19920;-60
2023/07/10 03:58:30;;;;;;;;;;;;;;;24.25;48.91;101848.44;4181198;28;19921;-61
2023/07/10 04:00:34;;;;;;;;;;;;;;;24.25;48.67;101848.44;4194873;28;20024;-60
2023/07/10 04:02:35;;;;;;;;;;;;;;;24.24;48.86;101852.09;4181134;28;20311;-58
2023/07/10 04:04:37;;;;;;;;;;;;;;;24.25;48.90;101851.13;4180986;28;19928;-61
2023/07/10 04:06:38;;;;;;;;;;;;;;;24.23;48.53;101845.88;4181274;28;19927;-59
2023/07/10 04:08:41;;;;;;;;;;;;;;;24.22;48.83;101849.53;4180916;28;20360;-62
2023/07/10 04:10:53;;;;;;;;;;;;;;;24.22;48.81;101854.06;4179595;28;19968;-59
2023/07/10 04:12:54;;;;;;;;;;;;;;;24.21;48.78;101849.66;4181036;28;19927;-61
2023/07/10 04:14:56;;;;;;;;;;;;;;;24.21;48.80;101855.03;4181106;28;20398;-61
2023/07/10 04:16:58;;;;;;;;;;;;;;;24.21;48.96;101857.72;4180753;28;19924;-61
2023/07/10 04:19:00;;;;;;;;;;;;;;;24.21;48.72;101860.41;4180959;28;20342;-61
2023/07/10 04:21:03;;;;;;;;;;;;;;;24.21;48.86;101863.09;4179865;28;19920;-61
2023/07/10 04:23:04;;;;;;;;;;;;;;;24.21;48.65;101865.78;4180886;28;20323;-61
2023/07/10 04:25:06;;;;;;;;;;;;;;;24.21;48.90;101865.78;4180485;28;20032;-59
2023/07/10 04:27:08;;;;;;;;;;;;;;;24.21;48.86;101868.47;4180509;28;19921;-62
2023/07/10 04:29:10;;;;;;;;;;;;;;;24.20;48.90;101872.97;4180755;28;19926;-58
2023/07/10 04:31:11;;;;;;;;;;;;;;;24.20;48.92;101881.03;4179739;28;20292;-60
2023/07/10 04:33:14;;;;;;;;;;;;;;;24.19;48.51;101876.66;4180493;28;19921;-59
2023/07/10 04:35:18;;;;;;;;;;;;;;;24.19;48.74;101876.66;4180453;28;19956;-62
2023/07/10 04:37:19;;;;;;;;;;;;;;;24.19;48.73;101876.66;4180625;28;20430;-61
2023/07/10 04:39:21;;;;;;;;;;;;;;;24.19;48.92;101879.34;4180108;28;19925;-61
2023/07/10 04:41:23;;;;;;;;;;;;;;;24.19;48.83;101878.47;4179304;28;19920;-61
2023/07/10 04:43:26;;;;;;;;;;;;;;;24.17;48.74;101878.59;4180654;28;20379;-61
2023/07/10 04:45:27;;;;;;;;;;;;;;;24.18;48.80;101879.44;4180515;28;19975;-61
2023/07/10 04:47:29;;;;;;;;;;;;;;;24.19;48.95;101883.84;4180359;28;19928;-61
2023/07/10 04:49:30;;;;;;;;;;;;;;;24.18;48.85;101880.31;4180457;28;19925;-61
2023/07/10 04:51:32;;;;;;;;;;;;;;;24.17;48.75;101883.97;4179357;28;19921;-61
2023/07/10 04:53:33;;;;;;;;;;;;;;;24.18;48.99;101884.81;4180305;28;19921;-61
2023/07/10 04:55:35;;;;;;;;;;;;;;;24.17;48.75;101886.66;4180520;28;19975;-61
2023/07/10 04:57:37;;;;;;;;;;;;;;;24.17;48.89;101886.66;4180468;28;19921;-60
2023/07/10 04:59:38;;;;;;;;;;;;;;;24.16;48.99;101884.94;4180212;28;19931;-61
2023/07/10 05:01:40;;;;;;;;;;;;;;;24.18;48.91;101892.88;4179651;28;19921;-61
2023/07/10 05:03:42;;;;;;;;;;;;;;;24.17;48.82;101885.78;4180298;28;19920;-61
2023/07/10 05:05:53;;;;;;;;;;;;;;;24.16;48.70;101889.47;4180576;28;19925;-61
2023/07/10 05:07:55;;;;;;;;;;;;;;;24.16;48.83;101889.47;4179781;28;19921;-61
2023/07/10 05:09:56;;;;;;;;;;;;;;;24.16;49.02;101882.25;4179677;28;19947;-61
2023/07/10 05:11:58;;;;;;;;;;;;;;;24.17;48.82;101888.47;4179887;28;19924;-61
2023/07/10 05:14:00;;;;;;;;;;;;;;;24.16;48.95;101884.09;4182876;28;19920;-61
2023/07/10 05:16:01;;;;;;;;;;;;;;;24.15;48.79;101885.91;4183788;28;19950;-61
2023/07/10 05:18:04;;;;;;;;;;;;;;;24.15;48.76;101880.53;4183931;28;20287;-61
2023/07/10 05:20:06;;;;;;;;;;;;;;;24.16;48.95;101887.63;4182682;28;19927;-61
2023/07/10 05:22:07;;;;;;;;;;;;;;;24.16;48.54;101886.78;4183152;28;19921;-61
2023/07/10 05:24:09;;;;;;;;;;;;;;;24.16;48.89;101886.78;4183590;28;20007;-61
2023/07/10 05:26:11;;;;;;;;;;;;;;;24.15;48.85;101882.38;4198841;28;19927;-61
2023/07/10 05:28:13;;;;;;;;;;;;;;;24.16;48.76;101894.84;4183583;28;19955;-60
2023/07/10 05:30:14;;;;;;;;;;;;;;;24.15;48.64;101887.75;4182655;28;19952;-61
2023/07/10 05:32:16;;;;;;;;;;;;;;;24.15;48.95;101883.22;4183344;28;19928;-61
2023/07/10 05:34:22;;;;;;;;;;;;;;;24.15;48.79;101885.06;4183362;28;19925;-61
2023/07/10 05:36:23;;;;;;;;;;;;;;;24.15;48.95;101887.75;4183297;28;20414;-61
2023/07/10 05:38:29;;;;;;;;;;;;;;;24.15;48.89;101890.44;4183324;28;19967;-60
2023/07/10 05:40:31;;;;;;;;;;;;;;;24.14;48.84;101881.50;4182498;28;20350;-60
2023/07/10 05:42:32;;;;;;;;;;;;;;;24.15;48.75;101887.75;4183071;28;19920;-59
2023/07/10 05:44:34;;;;;;;;;;;;;;;24.15;48.74;101890.44;4183343;28;19974;-59
2023/07/10 05:46:36;;;;;;;;;;;;;;;24.15;48.91;101885.06;4182876;28;19928;-60
2023/07/10 05:48:38;;;;;;;;;;;;;;;24.14;48.78;101883.34;4182083;28;19978;-60
2023/07/10 05:50:42;;;;;;;;;;;;;;;24.13;48.88;101885.16;4181802;28;19921;-61
2023/07/10 05:52:43;;;;;;;;;;;;;;;24.13;48.80;101885.16;4183077;28;20292;-60
2023/07/10 05:54:45;;;;;;;;;;;;;;;24.14;48.80;101886.03;4183047;28;19978;-61
2023/07/10 05:56:47;;;;;;;;;;;;;;;24.13;48.78;101885.16;4183096;28;20281;-60
2023/07/10 05:58:50;;;;;;;;;;;;;;;24.14;48.96;101891.41;4183042;28;19927;-60
2023/07/10 06:00:53;;;;;;;;;;;;;;;24.14;48.83;101894.94;4181953;28;19963;-60
2023/07/10 06:02:54;;;;;;;;;;;;;;;24.13;48.76;101887.84;4182809;28;19943;-59
2023/07/10 06:04:56;;;;;;;;;;;;;;;24.13;48.72;101881.63;4182798;28;19921;-60
2023/07/10 06:06:57;;;;;;;;;;;;;;;24.13;48.78;101889.69;4183010;28;19925;-60
2023/07/10 06:08:59;;;;;;;;;;;;;;;24.13;48.67;101892.38;4182959;28;19959;-59
2023/07/10 06:11:01;;;;;;;;;;;;;;;24.12;48.90;101891.53;4181603;28;20366;-59
2023/07/10 06:13:03;;;;;;;;;;;;;;;24.12;48.71;101888.84;4182601;28;20016;-60
2023/07/10 06:15:04;;;;;;;;;;;;;;;24.13;48.60;101889.69;4182825;28;19921;-61
2023/07/10 06:17:06;;;;;;;;;;;;;;;24.13;48.83;101890.53;4182685;28;19921;-61
2023/07/10 06:19:07;;;;;;;;;;;;;;;24.13;48.61;101892.38;4182531;28;20441;-62
2023/07/10 06:21:10;;;;;;;;;;;;;;;24.13;48.63;101887.00;4181371;28;19920;-59
2023/07/10 06:23:11;;;;;;;;;;;;;;;24.13;48.76;101889.69;4182212;28;19931;-61
2023/07/10 06:25:13;;;;;;;;;;;;;;;24.12;48.70;101893.34;4182228;28;19943;-60
2023/07/10 06:27:14;;;;;;;;;;;;;;;24.12;48.71;101890.66;4182718;28;20299;-61
2023/07/10 06:29:16;;;;;;;;;;;;;;;24.11;48.86;101888.94;4182499;28;19921;-61
2023/07/10 06:31:18;;;;;;;;;;;;;;;24.11;48.59;101884.44;4181347;28;19920;-61
2023/07/10 06:33:19;;;;;;;;;;;;;;;24.12;49.27;101893.34;4182448;28;19920;-61
2023/07/10 06:35:21;;;;;;;;;;;;;;;24.12;48.92;101893.34;4182428;28;19927;-61
2023/07/10 06:37:22;;;;;;;;;;;;;;;24.11;48.74;101888.94;4182390;28;20398;-60
2023/07/10 06:39:26;;;;;;;;;;;;;;;24.11;48.87;101884.44;4182485;28;20001;-61
2023/07/10 06:41:28;;;;;;;;;;;;;;;24.12;48.67;101890.66;4181338;28;19928;-61
2023/07/10 06:43:29;;;;;;;;;;;;;;;24.11;48.68;101886.25;4182266;28;19921;-61
2023/07/10 06:45:31;;;;;;;;;;;;;;;24.11;48.88;101888.94;4182320;28;20455;-61
2023/07/10 06:47:37;;;;;;;;;;;;;;;24.12;48.78;101887.97;4182268;28;19967;-61
2023/07/10 06:49:39;;;;;;;;;;;;;;;24.11;48.78;101884.44;4181955;28;19974;-61
2023/07/10 06:51:41;;;;;;;;;;;;;;;24.11;48.65;101887.13;4181269;28;20370;-61
2023/07/10 06:53:42;;;;;;;;;;;;;;;24.12;48.61;101887.97;4182149;28;20311;-61
2023/07/10 06:55:44;;;;;;;;;;;;;;;24.12;48.45;101887.97;4182322;28;19943;-61
2023/07/10 06:57:46;;;;;;;;;;;;;;;24.11;49.25;101884.44;4182170;28;19935;-61
2023/07/10 06:59:47;;;;;;;;;;;;;;;24.12;49.07;101880.78;4164442;28;19948;-61
2023/07/10 07:01:49;;;;;;;;;;;;;;;24.14;49.14;101881.50;4180988;28;19973;-61
2023/07/10 07:03:51;;;;;;;;;;;;;;;24.14;49.14;101877.97;4181807;28;19920;-61
2023/07/10 07:05:52;;;;;;;;;;;;;;;24.13;49.19;101879.78;4181984;28;19921;-61
2023/07/10 07:07:54;;;;;;;;;;;;;;;24.15;49.06;101882.38;4180572;28;19921;-61
2023/07/10 07:09:56;;;;;;;;;;;;;;;24.18;49.08;101887.50;4182063;28;19920;-61
2023/07/10 07:11:58;;;;;;;;;;;;;;;24.18;48.74;101883.00;4180573;28;19962;-61
2023/07/10 07:14:00;;;;;;;;;;;;;;;24.21;48.87;101882.75;4178999;28;19990;-63
2023/07/10 07:16:03;;;;;;;;;;;;;;;24.23;48.76;101890.72;4179036;28;19932;-62
2023/07/10 07:18:05;;;;;;;;;;;;;;;24.26;48.89;101886.94;4181155;28;20015;-62
2023/07/10 07:20:06;;;;;;;;;;;;;;;24.24;48.63;101878.97;4181845;28;19928;-62
2023/07/10 07:22:08;;;;;;;;;;;;;;;24.26;48.72;101879.72;4180599;28;19925;-61
2023/07/10 07:24:10;;;;;;;;;;;;;;;24.28;48.95;101876.91;4181487;28;20429;-60
2023/07/10 07:26:11;;;;;;;;;;;;;;;24.29;48.52;101879.50;4181709;28;19921;-61
2023/07/10 07:28:13;;;;;;;;;;;;;;;24.32;48.93;101881.09;4181807;28;19938;-60
2023/07/10 07:30:15;;;;;;;;;;;;;;;24.31;48.79;101874.84;4181180;28;20483;-60
2023/07/10 07:32:17;;;;;;;;;;;;;;;24.31;48.78;101879.38;4179020;28;19999;-59
2023/07/10 07:34:18;;;;;;;;;;;;;;;24.36;48.69;101879.88;4165223;28;19925;-59
2023/07/10 07:36:20;;;;;;;;;;;;;;;24.36;49.12;101872.69;4162839;28;19921;-59
2023/07/10 07:38:21;;;;;;;;;;;;;;;24.37;48.95;101882.44;4164876;28;20307;-58
2023/07/10 07:40:23;;;;;;;;;;;;;;;24.39;48.76;101877.81;4164327;28;19921;-59
2023/07/10 07:42:25;;;;;;;;;;;;;;;24.41;48.86;101875.00;4164708;28;20016;-59
2023/07/10 07:44:27;;;;;;;;;;;;;;;24.43;48.65;101883.81;4164860;28;20376;-60
2023/07/10 07:46:28;;;;;;;;;;;;;;;24.42;48.71;101879.41;4164536;28;19921;-57
2023/07/10 07:48:30;;;;;;;;;;;;;;;24.46;48.69;101874.66;4164973;28;20008;-58
2023/07/10 07:50:32;;;;;;;;;;;;;;;24.47;48.45;101868.31;4170884;28;19947;-58
2023/07/10 07:52:34;;;;;;;;;;;;;;;24.47;48.29;101865.63;4180695;28;19978;-59
2023/07/10 07:54:35;;;;;;;;;;;;;;;24.48;48.27;101862.81;4181222;28;19974;-58
2023/07/10 07:56:37;;;;;;;;;;;;;;;24.49;48.20;101864.53;4181098;28;20406;-58
2023/07/10 07:58:39;;;;;;;;;;;;;;;24.49;48.47;101863.69;4181178;28;19963;-58
2023/07/10 08:00:40;;;;;;;;;;;;;;;24.50;48.39;101860.88;4180623;28;19920;-58
2023/07/10 08:02:42;;;;;;;;;;;;;;;24.51;48.04;101856.34;4180715;28;20022;-58
2023/07/10 08:04:44;;;;;;;;;;;;;;;24.51;48.07;101862.59;4180872;28;20073;-58
2023/07/10 08:06:47;;;;;;;;;;;;;;;24.51;48.08;101851.84;4180978;28;19925;-58
2023/07/10 08:08:49;;;;;;;;;;;;;;;24.52;48.29;101858.06;4181093;28;19921;-58
2023/07/10 08:10:50;;;;;;;;;;;;;;;24.52;48.24;101855.38;4179860;28;19931;-58
2023/07/10 08:12:52;;;;;;;;;;;;;;;24.53;48.09;101855.28;4180664;28;20022;-58
2023/07/10 08:14:54;;;;;;;;;;;;;;;24.53;48.28;101851.72;4180863;28;19944;-58
2023/07/10 08:16:56;;;;;;;;;;;;;;;24.54;48.06;101850.75;4179345;28;20379;-57
2023/07/10 08:18:57;;;;;;;;;;;;;;;24.54;47.81;101851.59;4180989;28;19920;-58
2023/07/10 08:21:00;;;;;;;;;;;;;;;24.55;47.81;101852.47;4180026;28;20506;-59
2023/07/10 08:23:02;;;;;;;;;;;;;;;24.55;47.72;101850.59;4180707;28;20366;-58
2023/07/10 08:25:03;;;;;;;;;;;;;;;24.56;47.47;101855.00;4180752;28;20328;-59
2023/07/10 08:27:05;;;;;;;;;;;;;;;24.56;47.57;101851.47;4180774;28;19965;-58
2023/07/10 08:29:25;;;;;;;;;;;;;;;24.57;47.52;101855.91;4180501;28;19921;-59
2023/07/10 08:31:29;;;;;;;;;;;;;;;24.58;47.44;101856.75;4179329;28;19921;-58
2023/07/10 08:33:30;;;;;;;;;;;;;;;24.58;47.28;101851.34;4180539;28;19920;-58
2023/07/10 08:35:32;;;;;;;;;;;;;;;24.58;47.38;101851.34;4180527;28;19958;-58
2023/07/10 08:37:36;;;;;;;;;;;;;;;24.58;47.39;101857.59;4180632;28;19921;-58
2023/07/10 08:39:37;;;;;;;;;;;;;;;24.59;47.34;101853.91;4180806;28;19983;-59
2023/07/10 08:41:39;;;;;;;;;;;;;;;24.59;47.58;101856.59;4179530;28;19920;-58
2023/07/10 08:43:41;;;;;;;;;;;;;;;24.60;47.24;101860.19;4180658;28;19921;-58
2023/07/10 08:45:45;;;;;;;;;;;;;;;24.61;47.46;101856.50;4180274;28;20307;-58
2023/07/10 08:47:51;;;;;;;;;;;;;;;24.60;47.35;101855.63;4180256;28;19920;-58
2023/07/10 08:49:58;;;;;;;;;;;;;;;24.60;47.03;101858.31;4180322;28;19920;-58
2023/07/10 08:52:06;;;;;;;;;;;;;;;24.61;47.30;101859.19;4179345;28;20383;-58
2023/07/10 08:54:16;;;;;;;;;;;;;;;24.61;47.32;101853.81;4180434;28;20265;-58
2023/07/10 08:56:25;;;;;;;;;;;;;;;24.61;47.16;101846.59;4180456;28;19925;-57
2023/07/10 08:58:28;;;;;;;;;;;;;;;24.61;46.90;101851.97;4180539;28;19925;-58
2023/07/10 09:00:35;;;;;;;;;;;;;;;24.62;46.98;101853.69;4180228;28;19964;-59
2023/07/10 09:02:57;;;;;;;;;;;;;;;24.63;46.71;101854.53;4179574;28;19921;-58
2023/07/10 09:04:59;;;;;;;;;;;;;;;24.62;46.77;101845.63;4178274;28;19924;-57
2023/07/10 09:07:01;;;;;;;;;;;;;;;24.63;46.53;101841.09;4178310;28;19928;-57
2023/07/10 09:09:07;;;;;;;;;;;;;;;24.64;46.72;101848.19;4178400;28;19920;-57
2023/07/10 09:11:12;;;;;;;;;;;;;;;24.64;46.71;101842.81;4177160;28;20338;-58
2023/07/10 09:13:16;;;;;;;;;;;;;;;24.65;46.68;101842.69;4178138;28;20438;-58
2023/07/10 09:15:25;;;;;;;;;;;;;;;24.65;46.55;101837.31;4161755;28;19944;-59
2023/07/10 09:17:26;;;;;;;;;;;;;;;24.67;46.25;101845.31;4178237;28;19925;-58
2023/07/10 09:19:30;;;;;;;;;;;;;;;24.67;46.05;101850.69;4178166;28;19921;-58
2023/07/10 09:21:32;;;;;;;;;;;;;;;24.67;46.31;101848.84;4177121;28;20413;-58
2023/07/10 09:23:34;;;;;;;;;;;;;;;24.68;46.01;101847.00;4178018;28;19983;-58
2023/07/10 09:25:36;;;;;;;;;;;;;;;24.67;46.02;101840.78;4178218;28;19921;-57
2023/07/10 09:27:41;;;;;;;;;;;;;;;24.68;45.67;101845.19;4178193;28;19931;-57
2023/07/10 09:29:45;;;;;;;;;;;;;;;24.67;45.09;101846.16;4177526;28;20362;-57
2023/07/10 09:31:53;;;;;;;;;;;;;;;24.68;45.37;101847.88;4177018;28;19968;-57
2023/07/10 09:33:59;;;;;;;;;;;;;;;24.68;45.15;101845.19;4178227;28;20396;-58
2023/07/10 09:36:01;;;;;;;;;;;;;;;24.68;45.15;101841.63;4178081;28;20331;-58
2023/07/10 09:38:03;;;;;;;;;;;;;;;24.69;45.38;101849.59;4178119;28;19936;-58
2023/07/10 09:40:23;;;;;;;;;;;;;;;24.69;45.67;101838.81;4178110;28;19967;-57
2023/07/10 09:42:31;;;;;;;;;;;;;;;24.70;44.77;101840.53;4177750;28;19921;-58
2023/07/10 09:44:37;;;;;;;;;;;;;;;24.70;44.57;101837.84;4179960;28;19932;-57
2023/07/10 09:46:38;;;;;;;;;;;;;;;24.71;44.53;101844.06;4179898;28;19920;-57
2023/07/10 09:48:40;;;;;;;;;;;;;;;24.72;45.11;101843.09;4179802;28;19921;-57
2023/07/10 09:50:46;;;;;;;;;;;;;;;24.73;44.58;101844.81;4180257;28;20003;-58
2023/07/10 09:52:52;;;;;;;;;;;;;;;24.72;44.18;101841.25;4179610;28;19921;-58
2023/07/10 09:54:58;;;;;;;;;;;;;;;24.74;44.99;101834.91;4179958;28;19974;-58
2023/07/10 09:57:02;;;;;;;;;;;;;;;24.75;44.82;101829.41;4179673;28;20323;-58
2023/07/10 09:59:18;;;;;;;;;;;;;;;24.75;44.99;101840.16;4180814;28;19925;-57
2023/07/10 10:01:23;;;;;;;;;;;;;;;24.74;43.78;101833.09;4182017;28;19927;-57
2023/07/10 10:03:27;;;;;;;;;;;;;;;24.75;43.95;101840.16;4182748;28;20375;-58
2023/07/10 10:05:29;;;;;;;;;;;;;;;24.76;43.71;101841.03;4181635;28;19921;-58
2023/07/10 10:07:35;;;;;;;;;;;;;;;24.76;43.80;101847.25;4182999;28;20360;-58
2023/07/10 10:09:36;;;;;;;;;;;;;;;24.75;41.86;101842.84;4182964;28;19950;-57
2023/07/10 10:11:41;;;;;;;;;;;;;;;24.78;42.78;101839.09;4181425;28;19931;-56
2023/07/10 10:14:09;;;;;;;;;;;;;;;24.79;43.61;101838.09;4182934;28;19932;-57
2023/07/10 10:16:13;;;;;;;;;;;;;;;24.79;43.38;101847.03;4182436;28;19921;-57
2023/07/10 10:18:24;;;;;;;;;;;;;;;24.80;43.26;101839.81;4182736;28;19927;-57
2023/07/10 10:20:29;;;;;;;;;;;;;;;24.80;43.32;101834.41;4182438;28;19925;-58
2023/07/10 10:22:31;;;;;;;;;;;;;;;24.80;43.67;101837.13;4181716;28;19971;-57
2023/07/10 10:24:33;;;;;;;;;;;;;;;24.80;43.94;101840.69;4182553;28;19925;-57
2023/07/10 10:26:51;;;;;;;;;;;;;;;24.80;43.35;101843.38;4182191;28;19925;-57
2023/07/10 10:28:58;;;;;;;;;;;;;;;24.81;43.04;101833.44;4182391;28;19927;-56
2023/07/10 10:31:04;;;;;;;;;;;;;;;24.81;43.02;101836.13;4182019;28;20395;-58